createdAt,value
2019-05-15T00:00:09.703Z,6.88
2019-05-15T00:00:39.764Z,6.89
2019-05-15T00:01:12.156Z,6.85
2019-05-15T00:01:40.918Z,6.86
2019-05-15T00:02:39.763Z,6.85
2019-05-15T00:03:09.702Z,6.85
2019-05-15T00:03:39.757Z,6.85
2019-05-15T00:04:09.707Z,6.85
2019-05-15T00:04:39.795Z,6.83
2019-05-15T00:05:09.698Z,6.82
2019-05-15T00:05:39.760Z,6.83
2019-05-15T00:06:09.694Z,6.83
2019-05-15T00:06:39.760Z,6.82
2019-05-15T00:07:09.701Z,6.79
2019-05-15T00:07:39.763Z,6.76
2019-05-15T00:08:09.913Z,6.75
2019-05-15T00:08:39.761Z,6.75
2019-05-15T00:09:09.695Z,6.72
2019-05-15T00:09:42.235Z,6.72
2019-05-15T00:10:09.710Z,6.72
2019-05-15T00:10:39.767Z,6.71
2019-05-15T00:11:09.702Z,6.71
2019-05-15T00:11:42.233Z,6.69
2019-05-15T00:12:09.714Z,6.69
2019-05-15T00:12:39.870Z,6.68
2019-05-15T00:13:09.703Z,6.65
2019-05-15T00:13:39.762Z,6.65
2019-05-15T00:14:09.701Z,6.65
2019-05-15T00:14:39.767Z,6.60
2019-05-15T00:15:09.932Z,6.58
2019-05-15T00:15:40.264Z,6.56
2019-05-15T00:16:09.712Z,6.56
2019-05-15T00:16:39.762Z,6.55
2019-05-15T00:17:09.702Z,6.51
2019-05-15T00:17:39.766Z,6.51
2019-05-15T00:18:09.700Z,6.49
2019-05-15T00:18:39.767Z,6.49
2019-05-15T00:19:09.704Z,6.45
2019-05-15T00:19:39.760Z,6.45
2019-05-15T00:20:12.153Z,6.49
2019-05-15T00:20:39.831Z,6.45
2019-05-15T00:21:09.707Z,6.45
2019-05-15T00:21:39.760Z,6.44
2019-05-15T00:22:12.138Z,6.43
2019-05-15T00:22:39.756Z,6.44
2019-05-15T00:23:09.709Z,6.41
2019-05-15T00:23:39.764Z,6.45
2019-05-15T00:24:13.042Z,6.44
2019-05-15T00:24:39.761Z,6.43
2019-05-15T00:25:09.702Z,6.44
2019-05-15T00:25:39.783Z,6.45
2019-05-15T00:26:09.775Z,6.43
2019-05-15T00:26:39.773Z,6.45
2019-05-15T00:27:09.710Z,6.44
2019-05-15T00:27:39.764Z,6.47
2019-05-15T00:28:09.902Z,6.45
2019-05-15T00:28:39.761Z,6.44
2019-05-15T00:29:15.732Z,6.48
2019-05-15T00:29:39.767Z,6.49
2019-05-15T00:30:09.709Z,6.49
2019-05-15T00:30:42.292Z,6.49
2019-05-15T00:31:09.704Z,6.52
2019-05-15T00:31:39.766Z,6.52
2019-05-15T00:32:09.706Z,6.54
2019-05-15T00:32:42.288Z,6.52
2019-05-15T00:33:09.702Z,6.56
2019-05-15T00:33:39.768Z,6.56
2019-05-15T00:34:39.766Z,6.56
2019-05-15T00:35:09.729Z,6.55
2019-05-15T00:35:39.834Z,6.58
2019-05-15T00:36:09.738Z,6.58
2019-05-15T00:36:39.763Z,6.58
2019-05-15T00:37:09.702Z,6.61
2019-05-15T00:37:39.764Z,6.64
2019-05-15T00:38:09.769Z,6.62
2019-05-15T00:38:39.775Z,6.65
2019-05-15T00:39:09.709Z,6.65
2019-05-15T00:39:39.769Z,6.67
2019-05-15T00:40:09.705Z,6.67
2019-05-15T00:40:39.874Z,6.69
2019-05-15T00:41:12.435Z,6.71
2019-05-15T00:41:50.140Z,6.72
2019-05-15T00:42:09.708Z,6.71
2019-05-15T00:42:39.769Z,6.71
2019-05-15T00:43:12.416Z,6.71
2019-05-15T00:43:39.821Z,6.74
2019-05-15T00:44:09.706Z,6.75
2019-05-15T00:44:39.772Z,6.72
2019-05-15T00:45:09.791Z,6.71
2019-05-15T00:45:39.768Z,6.74
2019-05-15T00:46:09.716Z,6.71
2019-05-15T00:46:39.790Z,6.71
2019-05-15T00:47:39.987Z,6.68
2019-05-15T00:48:09.706Z,6.69
2019-05-15T00:48:40.108Z,6.67
2019-05-15T00:49:09.706Z,6.68
2019-05-15T00:49:39.770Z,6.67
2019-05-15T00:50:09.708Z,6.68
2019-05-15T00:50:39.771Z,6.68
2019-05-15T00:51:09.718Z,6.67
2019-05-15T00:51:42.340Z,6.68
2019-05-15T00:52:39.767Z,6.69
2019-05-15T00:53:09.708Z,6.68
2019-05-15T00:53:42.297Z,6.69
2019-05-15T00:54:09.715Z,6.69
2019-05-15T00:54:39.771Z,6.67
2019-05-15T00:55:09.714Z,6.69
2019-05-15T00:55:39.771Z,6.69
2019-05-15T00:56:09.711Z,6.69
2019-05-15T00:56:39.767Z,6.71
2019-05-15T00:57:09.737Z,6.72
2019-05-15T00:57:39.771Z,6.72
2019-05-15T00:58:09.718Z,6.74
2019-05-15T00:58:40.285Z,6.72
2019-05-15T00:59:16.518Z,6.74
2019-05-15T00:59:39.770Z,6.75
2019-05-15T01:00:09.718Z,6.71
2019-05-15T01:00:39.772Z,6.74
2019-05-15T01:01:09.716Z,6.71
2019-05-15T01:01:39.767Z,6.71
2019-05-15T01:02:12.221Z,6.72
2019-05-15T01:02:39.778Z,6.68
2019-05-15T01:03:09.711Z,6.71
2019-05-15T01:03:39.780Z,6.69
2019-05-15T01:04:12.204Z,6.69
2019-05-15T01:04:39.773Z,6.68
2019-05-15T01:05:09.716Z,6.68
2019-05-15T01:05:39.774Z,6.69
2019-05-15T01:06:09.716Z,6.69
2019-05-15T01:06:39.873Z,6.69
2019-05-15T01:07:09.713Z,6.67
2019-05-15T01:07:39.806Z,6.68
2019-05-15T01:08:09.707Z,6.68
2019-05-15T01:08:39.771Z,6.67
2019-05-15T01:09:09.710Z,6.69
2019-05-15T01:09:39.775Z,6.65
2019-05-15T01:10:10.087Z,6.67
2019-05-15T01:10:39.776Z,6.68
2019-05-15T01:11:09.713Z,6.69
2019-05-15T01:11:39.778Z,6.67
2019-05-15T01:12:09.714Z,6.65
2019-05-15T01:12:42.207Z,6.65
2019-05-15T01:13:09.726Z,6.65
2019-05-15T01:13:39.777Z,6.64
2019-05-15T01:14:12.107Z,6.65
2019-05-15T01:14:42.102Z,6.64
2019-05-15T01:15:09.718Z,6.64
2019-05-15T01:15:39.777Z,6.61
2019-05-15T01:16:09.721Z,6.61
2019-05-15T01:16:39.783Z,6.61
2019-05-15T01:17:09.719Z,6.60
2019-05-15T01:17:39.779Z,6.58
2019-05-15T01:18:09.735Z,6.58
2019-05-15T01:18:39.776Z,6.55
2019-05-15T01:19:09.724Z,6.55
2019-05-15T01:19:39.786Z,6.52
2019-05-15T01:20:09.711Z,6.54
2019-05-15T01:20:39.784Z,6.52
2019-05-15T01:21:09.711Z,6.52
2019-05-15T01:21:39.779Z,6.49
2019-05-15T01:22:09.717Z,6.48
2019-05-15T01:22:39.777Z,6.49
2019-05-15T01:23:12.260Z,6.49
2019-05-15T01:23:39.782Z,6.49
2019-05-15T01:24:09.713Z,6.49
2019-05-15T01:24:39.777Z,6.47
2019-05-15T01:25:12.239Z,6.48
2019-05-15T01:25:39.768Z,6.47
2019-05-15T01:26:09.720Z,6.47
2019-05-15T01:26:39.779Z,6.45
2019-05-15T01:27:09.715Z,6.44
2019-05-15T01:27:39.774Z,6.45
2019-05-15T01:28:09.731Z,6.45
2019-05-15T01:28:39.812Z,6.41
2019-05-15T01:29:09.722Z,6.43
2019-05-15T01:29:44.657Z,6.40
2019-05-15T01:30:09.726Z,6.38
2019-05-15T01:30:39.779Z,6.36
2019-05-15T01:31:09.724Z,6.33
2019-05-15T01:31:39.783Z,6.33
2019-05-15T01:32:09.715Z,6.28
2019-05-15T01:32:39.892Z,6.30
2019-05-15T01:33:09.720Z,6.28
2019-05-15T01:33:42.273Z,6.26
2019-05-15T01:34:09.719Z,6.24
2019-05-15T01:34:39.775Z,6.23
2019-05-15T01:35:09.865Z,6.24
2019-05-15T01:35:42.119Z,6.18
2019-05-15T01:36:09.719Z,6.20
2019-05-15T01:36:39.780Z,6.18
2019-05-15T01:37:09.743Z,6.16
2019-05-15T01:37:39.785Z,6.17
2019-05-15T01:38:09.713Z,6.13
2019-05-15T01:38:39.779Z,6.14
2019-05-15T01:39:09.733Z,6.12
2019-05-15T01:39:39.779Z,6.12
2019-05-15T01:40:09.720Z,6.09
2019-05-15T01:40:39.788Z,6.06
2019-05-15T01:41:09.918Z,6.05
2019-05-15T01:41:39.779Z,6.09
2019-05-15T01:42:09.722Z,6.09
2019-05-15T01:42:39.782Z,6.09
2019-05-15T01:43:09.725Z,6.06
2019-05-15T01:43:39.786Z,6.07
2019-05-15T01:44:12.282Z,6.06
2019-05-15T01:44:39.789Z,6.06
2019-05-15T01:45:09.719Z,6.06
2019-05-15T01:45:39.799Z,6.03
2019-05-15T01:46:12.203Z,6.05
2019-05-15T01:46:39.781Z,6.05
2019-05-15T01:47:09.723Z,6.00
2019-05-15T01:47:39.793Z,6.00
2019-05-15T01:48:09.723Z,6.00
2019-05-15T01:48:39.785Z,6.02
2019-05-15T01:49:09.725Z,6.00
2019-05-15T01:49:39.803Z,6.00
2019-05-15T01:50:09.719Z,5.97
2019-05-15T01:50:39.787Z,6.02
2019-05-15T01:51:09.728Z,5.99
2019-05-15T01:51:39.782Z,6.00
2019-05-15T01:52:09.720Z,6.02
2019-05-15T01:52:39.783Z,5.99
2019-05-15T01:53:09.719Z,6.00
2019-05-15T01:53:39.791Z,6.00
2019-05-15T01:54:09.725Z,6.02
2019-05-15T01:54:42.368Z,5.99
2019-05-15T01:55:09.733Z,5.99
2019-05-15T01:55:39.850Z,5.99
2019-05-15T01:56:09.728Z,6.00
2019-05-15T01:56:42.361Z,5.99
2019-05-15T01:57:09.724Z,5.99
2019-05-15T01:57:39.783Z,5.97
2019-05-15T01:58:09.723Z,5.96
2019-05-15T01:58:39.872Z,5.97
2019-05-15T01:59:09.723Z,5.97
2019-05-15T01:59:52.782Z,5.96
2019-05-15T02:00:09.726Z,5.95
2019-05-15T02:00:39.779Z,5.95
2019-05-15T02:01:09.727Z,5.96
2019-05-15T02:01:39.787Z,5.96
2019-05-15T02:02:09.731Z,5.97
2019-05-15T02:02:39.781Z,5.95
2019-05-15T02:03:10.128Z,5.96
2019-05-15T02:03:39.800Z,5.92
2019-05-15T02:04:09.730Z,5.92
2019-05-15T02:04:39.790Z,5.92
2019-05-15T02:05:12.193Z,5.96
2019-05-15T02:05:40.678Z,5.93
2019-05-15T02:06:10.144Z,5.93
2019-05-15T02:06:39.790Z,5.92
2019-05-15T02:07:12.128Z,5.93
2019-05-15T02:07:39.787Z,5.93
2019-05-15T02:08:09.726Z,5.93
2019-05-15T02:08:39.787Z,5.93
2019-05-15T02:09:09.727Z,5.90
2019-05-15T02:09:39.785Z,5.93
2019-05-15T02:10:09.731Z,5.93
2019-05-15T02:10:39.815Z,5.92
2019-05-15T02:11:09.733Z,5.89
2019-05-15T02:11:39.795Z,5.90
2019-05-15T02:12:09.721Z,5.89
2019-05-15T02:12:39.795Z,5.88
2019-05-15T02:13:09.728Z,5.88
2019-05-15T02:13:39.783Z,5.86
2019-05-15T02:14:09.725Z,5.86
2019-05-15T02:14:40.120Z,5.86
2019-05-15T02:15:09.723Z,5.85
2019-05-15T02:15:39.878Z,5.85
2019-05-15T02:16:09.725Z,5.85
2019-05-15T02:16:39.785Z,5.85
2019-05-15T02:17:09.731Z,5.84
2019-05-15T02:17:42.180Z,5.80
2019-05-15T02:18:09.735Z,5.80
2019-05-15T02:18:39.783Z,5.80
2019-05-15T02:19:09.756Z,5.79
2019-05-15T02:19:39.792Z,5.80
2019-05-15T02:20:09.734Z,5.80
2019-05-15T02:20:39.784Z,5.78
2019-05-15T02:21:10.429Z,5.78
2019-05-15T02:21:39.787Z,5.76
2019-05-15T02:22:09.735Z,5.75
2019-05-15T02:22:42.403Z,5.75
2019-05-15T02:23:39.795Z,5.73
2019-05-15T02:24:09.729Z,5.73
2019-05-15T02:24:39.787Z,5.75
2019-05-15T02:25:10.199Z,5.73
2019-05-15T02:25:39.826Z,5.72
2019-05-15T02:26:09.755Z,5.72
2019-05-15T02:26:39.788Z,5.72
2019-05-15T02:27:09.732Z,5.68
2019-05-15T02:27:39.785Z,5.70
2019-05-15T02:28:12.139Z,5.68
2019-05-15T02:28:39.787Z,5.68
2019-05-15T02:29:11.247Z,5.68
2019-05-15T02:29:39.788Z,5.66
2019-05-15T02:30:21.328Z,5.66
2019-05-15T02:30:40.851Z,5.65
2019-05-15T02:31:10.595Z,5.63
2019-05-15T02:31:39.793Z,5.62
2019-05-15T02:32:10.372Z,5.63
2019-05-15T02:32:40.210Z,5.62
2019-05-15T02:33:10.823Z,5.62
2019-05-15T02:33:40.376Z,5.59
2019-05-15T02:34:10.310Z,5.59
2019-05-15T02:34:39.961Z,5.58
2019-05-15T02:35:10.336Z,5.59
2019-05-15T02:35:40.194Z,5.62
2019-05-15T02:36:09.999Z,5.62
2019-05-15T02:36:40.298Z,5.55
2019-05-15T02:37:09.739Z,5.59
2019-05-15T02:37:41.266Z,5.58
2019-05-15T02:38:14.587Z,5.55
2019-05-15T02:38:42.205Z,5.57
2019-05-15T02:39:09.743Z,5.55
2019-05-15T02:39:39.793Z,5.57
2019-05-15T02:40:10.115Z,5.54
2019-05-15T02:40:40.640Z,5.54
2019-05-15T02:41:10.314Z,5.57
2019-05-15T02:41:40.051Z,5.54
2019-05-15T02:42:10.060Z,5.54
2019-05-15T02:42:40.557Z,5.52
2019-05-15T02:43:10.316Z,5.51
2019-05-15T02:43:39.796Z,5.52
2019-05-15T02:44:40.267Z,5.51
2019-05-15T02:45:10.509Z,5.52
2019-05-15T02:45:41.804Z,5.50
2019-05-15T02:46:10.452Z,5.52
2019-05-15T02:46:39.788Z,5.52
2019-05-15T02:47:09.746Z,5.50
2019-05-15T02:47:40.171Z,5.51
2019-05-15T02:48:09.766Z,5.50
2019-05-15T02:48:40.846Z,5.51
2019-05-15T02:49:12.155Z,5.48
2019-05-15T02:49:39.929Z,5.51
2019-05-15T02:50:10.935Z,5.50
2019-05-15T02:50:39.794Z,5.48
2019-05-15T02:51:09.971Z,5.47
2019-05-15T02:51:40.151Z,5.48
2019-05-15T02:52:10.111Z,5.45
2019-05-15T02:52:44.682Z,5.45
2019-05-15T02:53:10.410Z,5.42
2019-05-15T02:53:39.992Z,5.47
2019-05-15T02:54:10.321Z,5.48
2019-05-15T02:54:40.211Z,5.47
2019-05-15T02:55:09.900Z,5.48
2019-05-15T02:55:40.437Z,5.51
2019-05-15T02:56:09.736Z,5.50
2019-05-15T02:56:40.202Z,5.57
2019-05-15T02:57:10.019Z,5.57
2019-05-15T02:57:39.868Z,5.61
2019-05-15T02:58:10.403Z,5.63
2019-05-15T02:58:40.179Z,5.65
2019-05-15T02:59:09.733Z,5.66
2019-05-15T02:59:42.236Z,5.68
2019-05-15T03:00:10.679Z,5.73
2019-05-15T03:00:47.219Z,5.73
2019-05-15T03:01:09.809Z,5.78
2019-05-15T03:01:40.567Z,5.80
2019-05-15T03:02:10.262Z,5.82
2019-05-15T03:02:41.118Z,5.84
2019-05-15T03:03:09.796Z,5.88
2019-05-15T03:03:39.796Z,5.88
2019-05-15T03:04:09.753Z,5.89
2019-05-15T03:04:40.248Z,5.89
2019-05-15T03:05:09.812Z,5.90
2019-05-15T03:05:40.952Z,5.92
2019-05-15T03:06:10.213Z,5.92
2019-05-15T03:06:39.798Z,5.90
2019-05-15T03:07:10.365Z,5.92
2019-05-15T03:07:40.653Z,5.93
2019-05-15T03:08:09.981Z,5.93
2019-05-15T03:08:40.334Z,5.93
2019-05-15T03:09:09.843Z,5.93
2019-05-15T03:09:40.127Z,5.93
2019-05-15T03:10:12.145Z,5.92
2019-05-15T03:10:40.775Z,5.95
2019-05-15T03:11:10.087Z,5.92
2019-05-15T03:11:40.718Z,5.93
2019-05-15T03:12:09.738Z,5.95
2019-05-15T03:12:40.953Z,5.95
2019-05-15T03:13:10.218Z,5.92
2019-05-15T03:13:39.802Z,5.92
2019-05-15T03:14:09.737Z,5.92
2019-05-15T03:14:40.137Z,5.88
2019-05-15T03:15:10.120Z,5.90
2019-05-15T03:15:40.679Z,5.89
2019-05-15T03:16:10.242Z,5.89
2019-05-15T03:16:39.828Z,5.90
2019-05-15T03:17:09.962Z,5.86
2019-05-15T03:17:40.936Z,5.88
2019-05-15T03:18:10.074Z,5.86
2019-05-15T03:18:39.995Z,5.84
2019-05-15T03:19:10.142Z,5.85
2019-05-15T03:19:39.809Z,5.85
2019-05-15T03:20:10.557Z,5.84
2019-05-15T03:20:42.194Z,5.82
2019-05-15T03:21:10.063Z,5.82
2019-05-15T03:21:39.799Z,5.80
2019-05-15T03:22:10.125Z,5.82
2019-05-15T03:22:40.572Z,5.84
2019-05-15T03:23:10.195Z,5.80
2019-05-15T03:23:40.576Z,5.80
2019-05-15T03:24:10.261Z,5.82
2019-05-15T03:24:39.943Z,5.85
2019-05-15T03:25:10.749Z,5.85
2019-05-15T03:25:40.599Z,5.84
2019-05-15T03:26:09.756Z,5.84
2019-05-15T03:26:39.809Z,5.82
2019-05-15T03:27:09.744Z,5.84
2019-05-15T03:27:39.986Z,5.84
2019-05-15T03:28:10.958Z,5.82
2019-05-15T03:28:39.859Z,5.82
2019-05-15T03:29:10.046Z,5.79
2019-05-15T03:29:40.469Z,5.82
2019-05-15T03:30:13.064Z,5.80
2019-05-15T03:31:06.207Z,5.80
2019-05-15T03:31:30.934Z,5.82
2019-05-15T03:31:52.426Z,5.85
2019-05-15T03:32:24.701Z,5.82
2019-05-15T03:32:50.954Z,5.85
2019-05-15T03:33:16.120Z,5.82
2019-05-15T03:33:45.323Z,5.82
2019-05-15T03:34:20.237Z,5.80
2019-05-15T03:34:46.687Z,5.79
2019-05-15T03:35:14.047Z,5.79
2019-05-15T03:35:42.667Z,5.76
2019-05-15T03:36:44.922Z,5.75
2019-05-15T03:37:40.137Z,5.75
2019-05-15T03:38:09.778Z,5.72
2019-05-15T03:38:40.202Z,5.70
2019-05-15T03:39:09.870Z,5.69
2019-05-15T03:39:39.800Z,5.68
2019-05-15T03:40:10.511Z,5.66
2019-05-15T03:40:40.177Z,5.65
2019-05-15T03:41:10.325Z,5.63
2019-05-15T03:41:42.213Z,5.63
2019-05-15T03:42:09.743Z,5.62
2019-05-15T03:42:40.112Z,5.62
2019-05-15T03:43:09.764Z,5.59
2019-05-15T03:43:39.813Z,5.59
2019-05-15T03:44:09.743Z,5.57
2019-05-15T03:44:39.809Z,5.58
2019-05-15T03:45:10.457Z,5.58
2019-05-15T03:45:40.609Z,5.55
2019-05-15T03:46:09.746Z,5.54
2019-05-15T03:46:40.155Z,5.52
2019-05-15T03:47:09.744Z,5.57
2019-05-15T03:47:40.536Z,5.57
2019-05-15T03:48:09.818Z,5.59
2019-05-15T03:48:40.501Z,5.61
2019-05-15T03:49:10.168Z,5.62
2019-05-15T03:49:40.018Z,5.62
2019-05-15T03:50:09.760Z,5.62
2019-05-15T03:50:40.577Z,5.61
2019-05-15T03:51:09.749Z,5.65
2019-05-15T03:51:44.869Z,5.63
2019-05-15T03:52:12.122Z,5.63
2019-05-15T03:52:40.029Z,5.65
2019-05-15T03:53:10.440Z,5.66
2019-05-15T03:53:40.322Z,5.65
2019-05-15T03:54:09.752Z,5.63
2019-05-15T03:54:39.803Z,5.66
2019-05-15T03:55:11.018Z,5.68
2019-05-15T03:55:40.586Z,5.63
2019-05-15T03:56:10.087Z,5.61
2019-05-15T03:56:39.820Z,5.62
2019-05-15T03:57:10.005Z,5.63
2019-05-15T03:57:40.449Z,5.66
2019-05-15T03:58:10.224Z,5.66
2019-05-15T03:58:40.421Z,5.68
2019-05-15T03:59:09.747Z,5.68
2019-05-15T03:59:40.192Z,5.68
2019-05-15T04:00:10.048Z,5.69
2019-05-15T04:00:40.129Z,5.69
2019-05-15T04:01:43.724Z,5.72
2019-05-15T04:02:09.742Z,5.70
2019-05-15T04:02:42.181Z,5.69
2019-05-15T04:03:11.034Z,5.70
2019-05-15T04:03:39.809Z,5.72
2019-05-15T04:04:09.813Z,5.72
2019-05-15T04:04:39.807Z,5.70
2019-05-15T04:05:39.831Z,5.69
2019-05-15T04:06:10.338Z,5.70
2019-05-15T04:06:39.808Z,5.69
2019-05-15T04:07:09.757Z,5.72
2019-05-15T04:07:40.257Z,5.75
2019-05-15T04:08:39.809Z,5.72
2019-05-15T04:09:09.953Z,5.72
2019-05-15T04:09:39.812Z,5.72
2019-05-15T04:10:10.476Z,5.73
2019-05-15T04:10:40.331Z,5.72
2019-05-15T04:11:09.752Z,5.72
2019-05-15T04:11:39.819Z,5.73
2019-05-15T04:12:09.762Z,5.73
2019-05-15T04:12:40.616Z,5.76
2019-05-15T04:13:12.144Z,5.80
2019-05-15T04:13:40.038Z,5.86
2019-05-15T04:14:10.255Z,5.90
2019-05-15T04:14:39.808Z,5.96
2019-05-15T04:15:10.090Z,6.03
2019-05-15T04:15:40.147Z,6.09
2019-05-15T04:16:10.411Z,6.12
2019-05-15T04:16:39.810Z,6.16
2019-05-15T04:17:09.756Z,6.20
2019-05-15T04:17:40.661Z,6.20
2019-05-15T04:18:09.958Z,6.28
2019-05-15T04:18:39.875Z,6.36
2019-05-15T04:19:10.041Z,6.40
2019-05-15T04:19:39.817Z,6.44
2019-05-15T04:20:10.255Z,6.47
2019-05-15T04:20:40.934Z,6.49
2019-05-15T04:21:09.826Z,6.49
2019-05-15T04:21:44.587Z,6.52
2019-05-15T04:22:09.762Z,6.54
2019-05-15T04:22:40.583Z,6.54
2019-05-15T04:23:10.365Z,6.58
2019-05-15T04:23:42.105Z,6.58
2019-05-15T04:24:09.765Z,6.62
2019-05-15T04:24:39.891Z,6.69
2019-05-15T04:25:10.209Z,6.71
2019-05-15T04:25:39.817Z,6.74
2019-05-15T04:26:09.851Z,6.76
2019-05-15T04:26:39.816Z,6.81
2019-05-15T04:27:10.827Z,6.85
2019-05-15T04:27:39.817Z,6.89
2019-05-15T04:28:10.105Z,6.88
2019-05-15T04:28:41.541Z,6.91
2019-05-15T04:29:09.962Z,6.91
2019-05-15T04:29:40.034Z,6.93
2019-05-15T04:30:10.833Z,6.92
2019-05-15T04:30:39.814Z,6.99
2019-05-15T04:31:10.331Z,6.98
2019-05-15T04:31:51.505Z,7.04
2019-05-15T04:32:10.717Z,7.04
2019-05-15T04:32:40.230Z,7.06
2019-05-15T04:33:10.095Z,7.07
2019-05-15T04:33:40.306Z,7.07
2019-05-15T04:34:12.208Z,7.06
2019-05-15T04:34:39.857Z,7.07
2019-05-15T04:35:10.066Z,7.09
2019-05-15T04:35:40.477Z,7.12
2019-05-15T04:36:10.129Z,7.13
2019-05-15T04:36:44.203Z,7.16
2019-05-15T04:37:09.751Z,7.14
2019-05-15T04:37:40.886Z,7.14
2019-05-15T04:38:09.924Z,7.16
2019-05-15T04:38:39.828Z,7.16
2019-05-15T04:39:10.077Z,7.14
2019-05-15T04:39:40.206Z,7.19
2019-05-15T04:40:10.017Z,7.21
2019-05-15T04:40:40.159Z,7.21
2019-05-15T04:41:10.102Z,7.23
2019-05-15T04:41:40.091Z,7.27
2019-05-15T04:42:09.760Z,7.30
2019-05-15T04:42:40.200Z,7.33
2019-05-15T04:43:10.714Z,7.39
2019-05-15T04:43:44.755Z,7.43
2019-05-15T04:44:10.386Z,7.47
2019-05-15T04:44:42.174Z,7.44
2019-05-15T04:45:10.472Z,7.41
2019-05-15T04:45:39.855Z,7.39
2019-05-15T04:46:10.224Z,7.35
2019-05-15T04:46:39.818Z,7.34
2019-05-15T04:47:09.992Z,7.37
2019-05-15T04:47:40.236Z,7.46
2019-05-15T04:48:10.430Z,7.53
2019-05-15T04:48:40.253Z,7.59
2019-05-15T04:49:09.762Z,7.64
2019-05-15T04:49:39.819Z,7.74
2019-05-15T04:50:09.857Z,7.78
2019-05-15T04:50:40.370Z,7.82
2019-05-15T04:51:10.105Z,7.86
2019-05-15T04:51:39.834Z,7.85
2019-05-15T04:52:10.600Z,7.82
2019-05-15T04:52:43.179Z,7.82
2019-05-15T04:53:10.847Z,7.84
2019-05-15T04:53:40.100Z,7.86
2019-05-15T04:54:09.919Z,7.92
2019-05-15T04:54:40.280Z,7.90
2019-05-15T04:55:12.164Z,7.92
2019-05-15T04:55:40.548Z,7.93
2019-05-15T04:56:09.894Z,7.96
2019-05-15T04:56:40.229Z,8.00
2019-05-15T04:57:09.761Z,8.02
2019-05-15T04:57:40.780Z,8.00
2019-05-15T04:58:10.369Z,8.00
2019-05-15T04:58:39.993Z,7.95
2019-05-15T04:59:10.298Z,7.93
2019-05-15T04:59:39.833Z,7.92
2019-05-15T05:00:10.126Z,7.88
2019-05-15T05:00:40.140Z,7.89
2019-05-15T05:01:09.907Z,7.88
2019-05-15T05:01:40.474Z,7.86
2019-05-15T05:02:24.341Z,7.79
2019-05-15T05:02:40.718Z,7.72
2019-05-15T05:03:10.077Z,7.62
2019-05-15T05:03:39.970Z,7.58
2019-05-15T05:04:09.761Z,7.58
2019-05-15T05:04:39.812Z,7.59
2019-05-15T05:05:10.531Z,7.65
2019-05-15T05:05:42.243Z,7.65
2019-05-15T05:06:10.152Z,7.72
2019-05-15T05:06:39.823Z,7.75
2019-05-15T05:07:09.764Z,7.77
2019-05-15T05:07:40.031Z,7.77
2019-05-15T05:08:09.802Z,7.81
2019-05-15T05:08:40.210Z,7.86
2019-05-15T05:09:09.764Z,7.93
2019-05-15T05:09:39.815Z,8.00
2019-05-15T05:10:10.250Z,8.09
2019-05-15T05:10:39.822Z,8.23
2019-05-15T05:11:10.090Z,8.32
2019-05-15T05:11:39.823Z,8.34
2019-05-15T05:12:09.761Z,8.32
2019-05-15T05:12:41.435Z,8.34
2019-05-15T05:13:10.248Z,8.37
2019-05-15T05:13:39.825Z,8.41
2019-05-15T05:14:09.763Z,8.48
2019-05-15T05:14:39.827Z,8.48
2019-05-15T05:15:09.776Z,8.50
2019-05-15T05:15:39.836Z,8.48
2019-05-15T05:16:12.207Z,8.40
2019-05-15T05:16:39.828Z,8.36
2019-05-15T05:17:09.774Z,8.30
2019-05-15T05:17:39.839Z,8.22
2019-05-15T05:18:09.762Z,8.13
2019-05-15T05:18:41.512Z,8.03
2019-05-15T05:19:09.764Z,7.96
2019-05-15T05:19:40.256Z,7.90
2019-05-15T05:20:09.788Z,7.84
2019-05-15T05:20:39.825Z,7.72
2019-05-15T05:21:09.761Z,7.64
2019-05-15T05:21:39.874Z,7.58
2019-05-15T05:22:09.778Z,7.57
2019-05-15T05:22:39.826Z,7.50
2019-05-15T05:23:09.764Z,7.46
2019-05-15T05:23:40.178Z,7.40
2019-05-15T05:24:09.765Z,7.40
2019-05-15T05:24:39.822Z,7.37
2019-05-15T05:25:09.777Z,7.33
2019-05-15T05:25:39.822Z,7.27
2019-05-15T05:26:11.147Z,7.27
2019-05-15T05:26:42.276Z,7.23
2019-05-15T05:27:09.767Z,7.24
2019-05-15T05:27:39.818Z,7.19
2019-05-15T05:28:09.771Z,7.19
2019-05-15T05:28:39.833Z,7.19
2019-05-15T05:29:09.768Z,7.16
2019-05-15T05:29:39.832Z,7.13
2019-05-15T05:30:09.765Z,7.12
2019-05-15T05:30:39.820Z,7.09
2019-05-15T05:31:09.769Z,7.09
2019-05-15T05:31:39.832Z,7.06
2019-05-15T05:32:09.810Z,7.04
2019-05-15T05:32:39.824Z,7.03
2019-05-15T05:33:09.763Z,7.03
2019-05-15T05:33:39.836Z,7.00
2019-05-15T05:34:10.212Z,6.99
2019-05-15T05:34:39.826Z,6.96
2019-05-15T05:35:09.770Z,6.99
2019-05-15T05:35:39.824Z,6.99
2019-05-15T05:36:09.770Z,6.99
2019-05-15T05:36:39.825Z,6.99
2019-05-15T05:37:12.171Z,7.00
2019-05-15T05:37:39.838Z,7.03
2019-05-15T05:38:09.768Z,7.03
2019-05-15T05:38:39.826Z,7.04
2019-05-15T05:39:13.286Z,7.03
2019-05-15T05:39:39.832Z,7.07
2019-05-15T05:40:09.775Z,7.04
2019-05-15T05:40:39.828Z,7.10
2019-05-15T05:41:09.772Z,7.09
2019-05-15T05:41:39.827Z,7.10
2019-05-15T05:42:09.778Z,7.12
2019-05-15T05:42:39.908Z,7.09
2019-05-15T05:43:09.775Z,7.09
2019-05-15T05:43:39.833Z,7.12
2019-05-15T05:44:09.787Z,7.12
2019-05-15T05:44:42.620Z,7.12
2019-05-15T05:45:09.765Z,7.13
2019-05-15T05:45:39.823Z,7.10
2019-05-15T05:46:09.774Z,7.12
2019-05-15T05:46:39.994Z,7.12
2019-05-15T05:47:09.789Z,7.14
2019-05-15T05:47:42.166Z,7.16
2019-05-15T05:48:09.769Z,7.20
2019-05-15T05:48:39.837Z,7.26
2019-05-15T05:49:09.770Z,7.27
2019-05-15T05:49:39.829Z,7.34
2019-05-15T05:50:09.774Z,7.40
2019-05-15T05:50:39.833Z,7.46
2019-05-15T05:51:09.767Z,7.51
2019-05-15T05:51:39.822Z,7.58
2019-05-15T05:52:09.774Z,7.64
2019-05-15T05:52:39.834Z,7.67
2019-05-15T05:53:09.790Z,7.69
2019-05-15T05:53:39.831Z,7.71
2019-05-15T05:54:09.775Z,7.67
2019-05-15T05:54:39.832Z,7.59
2019-05-15T05:55:10.341Z,7.57
2019-05-15T05:55:39.828Z,7.51
2019-05-15T05:56:09.774Z,7.48
2019-05-15T05:56:39.836Z,7.43
2019-05-15T05:57:09.782Z,7.41
2019-05-15T05:57:39.829Z,7.34
2019-05-15T05:58:12.187Z,7.33
2019-05-15T05:58:39.836Z,7.31
2019-05-15T05:59:09.770Z,7.29
2019-05-15T05:59:39.839Z,7.26
2019-05-15T06:00:09.783Z,7.23
2019-05-15T06:00:39.833Z,7.19
2019-05-15T06:01:09.780Z,7.13
2019-05-15T06:01:43.866Z,7.10
2019-05-15T06:02:09.773Z,7.10
2019-05-15T06:02:47.546Z,7.07
2019-05-15T06:03:09.775Z,7.10
2019-05-15T06:03:39.862Z,7.10
2019-05-15T06:04:09.771Z,7.13
2019-05-15T06:04:39.839Z,7.07
2019-05-15T06:05:09.775Z,7.06
2019-05-15T06:05:40.245Z,7.07
2019-05-15T06:06:10.093Z,7.10
2019-05-15T06:06:39.838Z,7.12
2019-05-15T06:07:14.004Z,7.14
2019-05-15T06:07:39.833Z,7.16
2019-05-15T06:08:09.779Z,7.20
2019-05-15T06:08:42.185Z,7.19
2019-05-15T06:09:09.776Z,7.20
2019-05-15T06:09:39.835Z,7.21
2019-05-15T06:10:09.777Z,7.23
2019-05-15T06:10:39.834Z,7.29
2019-05-15T06:11:10.056Z,7.27
2019-05-15T06:11:39.828Z,7.33
2019-05-15T06:12:09.778Z,7.30
2019-05-15T06:12:39.833Z,7.31
2019-05-15T06:13:09.781Z,7.31
2019-05-15T06:13:39.835Z,7.26
2019-05-15T06:14:09.800Z,7.26
2019-05-15T06:14:39.837Z,7.29
2019-05-15T06:15:09.782Z,7.29
2019-05-15T06:15:39.835Z,7.26
2019-05-15T06:16:10.349Z,7.26
2019-05-15T06:16:39.888Z,7.29
2019-05-15T06:17:09.776Z,7.29
2019-05-15T06:17:39.842Z,7.30
2019-05-15T06:18:09.782Z,7.33
2019-05-15T06:18:39.840Z,7.35
2019-05-15T06:19:12.170Z,7.37
2019-05-15T06:19:39.840Z,7.41
2019-05-15T06:20:09.776Z,7.44
2019-05-15T06:20:39.846Z,7.46
2019-05-15T06:21:09.776Z,7.47
2019-05-15T06:21:53.568Z,7.43
2019-05-15T06:22:09.781Z,7.47
2019-05-15T06:22:39.842Z,7.50
2019-05-15T06:23:09.776Z,7.55
2019-05-15T06:23:45.034Z,7.58
2019-05-15T06:24:13.025Z,7.58
2019-05-15T06:24:39.843Z,7.59
2019-05-15T06:25:11.131Z,7.59
2019-05-15T06:25:39.839Z,7.62
2019-05-15T06:26:09.839Z,7.62
2019-05-15T06:26:40.140Z,7.65
2019-05-15T06:27:09.782Z,7.62
2019-05-15T06:27:39.836Z,7.61
2019-05-15T06:28:09.784Z,7.61
2019-05-15T06:28:39.879Z,7.59
2019-05-15T06:29:09.785Z,7.58
2019-05-15T06:29:42.205Z,7.53
2019-05-15T06:30:14.995Z,7.51
2019-05-15T06:30:39.834Z,7.50
2019-05-15T06:31:09.799Z,7.44
2019-05-15T06:31:39.842Z,7.48
2019-05-15T06:32:09.785Z,7.48
2019-05-15T06:32:40.268Z,7.51
2019-05-15T06:33:13.359Z,7.50
2019-05-15T06:33:39.846Z,7.51
2019-05-15T06:34:09.780Z,7.48
2019-05-15T06:34:39.839Z,7.47
2019-05-15T06:35:09.796Z,7.50
2019-05-15T06:35:39.849Z,7.48
2019-05-15T06:36:09.784Z,7.53
2019-05-15T06:36:39.848Z,7.54
2019-05-15T06:37:10.403Z,7.53
2019-05-15T06:37:39.938Z,7.58
2019-05-15T06:38:09.783Z,7.58
2019-05-15T06:38:39.836Z,7.58
2019-05-15T06:39:09.777Z,7.61
2019-05-15T06:39:39.843Z,7.64
2019-05-15T06:40:12.166Z,7.59
2019-05-15T06:40:39.843Z,7.61
2019-05-15T06:41:09.784Z,7.61
2019-05-15T06:41:39.841Z,7.59
2019-05-15T06:42:09.785Z,7.54
2019-05-15T06:42:39.843Z,7.54
2019-05-15T06:43:09.779Z,7.53
2019-05-15T06:43:39.839Z,7.54
2019-05-15T06:44:09.785Z,7.54
2019-05-15T06:44:39.844Z,7.53